createdAt,value
2022-09-12T00:01:23.480Z,74.59
2022-09-12T00:03:58.361Z,74.54
2022-09-12T00:06:36.933Z,75.31
2022-09-12T00:09:10.778Z,75.88
2022-09-12T00:11:42.649Z,75.46
2022-09-12T00:14:11.528Z,75.87
2022-09-12T00:16:39.423Z,76.30
2022-09-12T00:19:06.821Z,77.44
2022-09-12T00:21:35.205Z,77.53
2022-09-12T00:24:01.806Z,77.15
2022-09-12T00:26:28.520Z,76.92
2022-09-12T00:28:55.183Z,77.69
2022-09-12T00:31:26.539Z,78.13
2022-09-12T00:33:55.711Z,78.95
2022-09-12T00:36:24.242Z,79.69
2022-09-12T00:38:51.261Z,80.22
2022-09-12T00:41:21.832Z,80.16
2022-09-12T00:43:49.354Z,79.60
2022-09-12T00:46:21.864Z,79.44
2022-09-12T00:48:54.251Z,79.88
2022-09-12T00:51:20.912Z,79.02
2022-09-12T00:53:49.936Z,78.80
2022-09-12T00:56:19.125Z,78.20
2022-09-12T00:58:57.880Z,77.99
2022-09-12T01:01:25.956Z,77.38
2022-09-12T01:03:54.786Z,77.04
2022-09-12T01:06:33.058Z,77.25
2022-09-12T01:09:03.404Z,78.06
2022-09-12T01:11:32.271Z,79.05
2022-09-12T01:13:59.853Z,79.28
2022-09-12T01:16:26.441Z,79.33
2022-09-12T01:19:25.558Z,79.11
2022-09-12T01:22:29.735Z,78.42
2022-09-12T01:25:38.231Z,77.68
2022-09-12T01:28:31.913Z,77.83
2022-09-12T01:31:08.014Z,78.23
2022-09-12T01:33:47.759Z,78.28
2022-09-12T01:36:39.225Z,78.25
2022-09-12T01:39:27.126Z,78.29
2022-09-12T01:42:06.453Z,78.12
2022-09-12T01:45:04.398Z,78.33
2022-09-12T01:47:41.205Z,78.20
2022-09-12T01:50:18.957Z,78.57
2022-09-12T01:52:54.053Z,78.14
2022-09-12T01:55:44.169Z,77.36
2022-09-12T01:58:29.305Z,77.06
2022-09-12T02:01:15.039Z,76.92
2022-09-12T02:03:45.057Z,77.13
2022-09-12T02:06:41.754Z,77.11
2022-09-12T02:09:18.520Z,77.30
2022-09-12T02:11:47.266Z,77.09
2022-09-12T02:14:32.600Z,77.27
2022-09-12T02:17:06.030Z,76.82
2022-09-12T02:19:40.783Z,76.79
2022-09-12T02:22:14.781Z,77.00
2022-09-12T02:24:47.301Z,77.33
2022-09-12T02:27:23.755Z,78.07
2022-09-12T02:29:50.907Z,78.86
2022-09-12T02:32:38.209Z,79.62
2022-09-12T02:35:26.328Z,78.96
2022-09-12T02:38:14.838Z,79.76
2022-09-12T02:40:41.728Z,79.30
2022-09-12T02:43:08.231Z,78.87
2022-09-12T02:45:36.631Z,78.93
2022-09-12T02:48:10.456Z,79.56
2022-09-12T02:50:38.665Z,79.31
2022-09-12T02:53:08.247Z,78.62
2022-09-12T02:55:37.027Z,78.60
2022-09-12T02:58:06.949Z,78.64
2022-09-12T03:00:39.909Z,79.59
2022-09-12T03:03:43.547Z,80.29
2022-09-12T03:06:25.014Z,80.74
2022-09-12T03:09:01.418Z,79.98
2022-09-12T03:11:54.054Z,80.38
2022-09-12T03:15:01.769Z,81.28
2022-09-12T03:18:09.606Z,80.91
2022-09-12T03:20:53.972Z,80.70
2022-09-12T03:23:31.142Z,79.96
2022-09-12T03:26:04.473Z,79.73
2022-09-12T03:28:33.482Z,79.21
2022-09-12T03:31:00.218Z,78.87
2022-09-12T03:33:26.949Z,78.63
2022-09-12T03:35:55.247Z,78.57
2022-09-12T03:38:21.737Z,78.33
2022-09-12T03:40:52.686Z,78.47
2022-09-12T03:43:21.290Z,78.24
2022-09-12T03:45:52.399Z,78.50
2022-09-12T03:48:19.024Z,78.52
2022-09-12T03:50:45.700Z,78.61
2022-09-12T03:53:16.552Z,79.29
2022-09-12T03:55:43.946Z,79.65
2022-09-12T03:58:11.247Z,79.33
2022-09-12T04:00:39.608Z,79.43
2022-09-12T04:03:06.202Z,78.97
2022-09-12T04:05:33.124Z,79.08
2022-09-12T04:07:59.596Z,78.72
2022-09-12T04:10:26.151Z,78.73
2022-09-12T04:12:52.940Z,78.90
2022-09-12T04:15:19.406Z,79.17
2022-09-12T04:17:45.868Z,79.36
2022-09-12T04:20:12.676Z,80.91
2022-09-12T04:22:39.257Z,81.02
2022-09-12T04:25:06.279Z,82.26
2022-09-12T04:27:33.110Z,83.21
2022-09-12T04:30:01.164Z,83.06
2022-09-12T04:32:29.656Z,82.39
2022-09-12T04:34:56.601Z,81.78
2022-09-12T04:37:24.194Z,81.62
2022-09-12T04:39:51.780Z,81.00
2022-09-12T04:42:18.502Z,80.59
2022-09-12T04:44:44.979Z,80.85
2022-09-12T04:47:11.475Z,80.25
2022-09-12T04:49:38.170Z,80.09
2022-09-12T04:52:04.639Z,80.96
2022-09-12T04:54:31.205Z,80.49
2022-09-12T04:56:57.874Z,82.07
2022-09-12T04:59:24.392Z,82.58
2022-09-12T05:01:51.315Z,82.55
2022-09-12T05:04:18.639Z,82.03
2022-09-12T05:06:47.623Z,81.27
2022-09-12T05:09:14.723Z,82.03
2022-09-12T05:14:32.593Z,82.87
2022-09-12T05:17:01.652Z,82.73
2022-09-12T05:19:30.126Z,82.97
2022-09-12T05:21:56.852Z,83.82
2022-09-12T05:24:24.768Z,83.67
2022-09-12T05:26:51.634Z,83.53
2022-09-12T05:29:18.300Z,82.78
2022-09-12T05:31:45.245Z,83.32
2022-09-12T05:34:12.696Z,82.93
2022-09-12T05:36:39.179Z,83.26
2022-09-12T05:39:05.966Z,84.31
2022-09-12T05:41:33.810Z,83.77
2022-09-12T05:44:02.614Z,82.87
2022-09-12T05:46:37.734Z,82.84
2022-09-12T05:49:10.021Z,81.79
2022-09-12T05:51:39.398Z,82.16
2022-09-12T05:54:07.692Z,82.63
2022-09-12T05:56:39.396Z,83.86
2022-09-12T05:59:26.199Z,84.12
2022-09-12T06:01:54.089Z,83.91
2022-09-12T06:04:20.648Z,84.14
2022-09-12T06:06:47.241Z,84.55
2022-09-12T06:09:16.154Z,85.62
2022-09-12T06:11:43.249Z,85.03
2022-09-12T06:14:12.597Z,84.85
2022-09-12T06:16:39.432Z,85.39
2022-09-12T06:19:15.293Z,85.17
2022-09-12T06:21:42.082Z,84.53
2022-09-12T06:24:08.587Z,84.95
2022-09-12T06:26:35.478Z,84.42
2022-09-12T06:29:02.937Z,84.72
2022-09-12T06:31:35.031Z,85.26
2022-09-12T06:34:04.604Z,85.57
2022-09-12T06:36:37.998Z,84.91
2022-09-12T06:39:16.901Z,85.02
2022-09-12T06:41:44.661Z,85.01
2022-09-12T06:44:14.921Z,84.65
2022-09-12T06:46:41.829Z,85.47
2022-09-12T06:49:08.606Z,85.16
2022-09-12T06:51:36.259Z,85.08
2022-09-12T06:54:03.718Z,85.29
2022-09-12T06:56:30.215Z,85.03
2022-09-12T06:58:58.321Z,84.33
2022-09-12T07:01:27.740Z,84.58
2022-09-12T07:03:56.891Z,84.33
2022-09-12T07:06:26.083Z,84.50
2022-09-12T07:08:52.534Z,84.32
2022-09-12T07:11:21.898Z,84.05
2022-09-12T07:13:50.812Z,84.06
2022-09-12T07:16:19.943Z,83.34
2022-09-12T07:18:51.712Z,82.98
2022-09-12T07:21:18.144Z,82.84
2022-09-12T07:23:45.595Z,82.92
2022-09-12T07:26:13.412Z,82.37
2022-09-12T07:28:40.317Z,82.07
2022-09-12T07:31:10.864Z,81.73
2022-09-12T07:33:37.727Z,81.13
2022-09-12T07:36:06.776Z,80.53
2022-09-12T07:38:33.382Z,80.21
2022-09-12T07:41:01.145Z,80.79
2022-09-12T07:43:27.985Z,80.85
2022-09-12T07:45:58.019Z,80.40
2022-09-12T07:48:24.752Z,80.03
2022-09-12T07:51:02.155Z,79.46
2022-09-12T07:53:32.983Z,78.89
2022-09-12T07:56:00.657Z,78.73
2022-09-12T07:58:27.468Z,78.44
2022-09-12T08:00:54.015Z,78.11
2022-09-12T08:03:20.518Z,77.97
2022-09-12T08:05:47.536Z,77.33
2022-09-12T08:08:14.032Z,77.43
2022-09-12T08:10:40.465Z,76.89
2022-09-12T08:13:10.125Z,76.59
2022-09-12T08:15:37.306Z,76.35
2022-09-12T08:18:03.826Z,76.00
2022-09-12T08:20:31.073Z,75.57
2022-09-12T08:22:57.688Z,75.31
2022-09-12T08:25:24.182Z,74.68
2022-09-12T08:27:50.794Z,73.34
2022-09-12T08:30:17.311Z,73.28
2022-09-12T08:32:44.414Z,72.80
2022-09-12T08:35:11.230Z,72.64
2022-09-12T08:37:37.891Z,72.56
2022-09-12T08:40:07.198Z,72.58
2022-09-12T08:42:54.405Z,72.13
2022-09-12T08:45:30.359Z,71.82
2022-09-12T08:47:57.533Z,71.50
2022-09-12T08:50:24.058Z,70.40
2022-09-12T08:52:58.888Z,70.02
2022-09-12T08:55:33.561Z,68.96
2022-09-12T08:58:02.681Z,68.57
2022-09-12T09:00:38.518Z,68.12
2022-09-12T09:03:15.333Z,68.19
2022-09-12T09:05:51.313Z,67.41
2022-09-12T09:08:17.769Z,66.96
2022-09-12T09:10:59.750Z,67.03
2022-09-12T09:13:54.016Z,67.23
2022-09-12T09:16:27.725Z,67.12
2022-09-12T09:18:57.245Z,67.03
2022-09-12T09:21:31.691Z,67.69
2022-09-12T09:24:05.963Z,67.00
2022-09-12T09:26:53.461Z,67.57
2022-09-12T09:29:26.960Z,67.62
2022-09-12T09:31:57.664Z,66.39
2022-09-12T09:34:31.593Z,66.45
2022-09-12T09:37:20.973Z,65.68
2022-09-12T09:40:28.923Z,64.72
2022-09-12T09:43:04.903Z,64.74
2022-09-12T09:45:31.893Z,64.18
2022-09-12T09:48:17.524Z,63.80
2022-09-12T09:50:46.143Z,63.50
2022-09-12T09:53:27.129Z,62.68
2022-09-12T09:55:56.787Z,61.83
2022-09-12T09:58:34.333Z,61.63
2022-09-12T10:01:06.432Z,61.37
2022-09-12T10:03:37.165Z,61.36
2022-09-12T10:06:22.569Z,60.75
2022-09-12T10:08:50.222Z,60.35
2022-09-12T10:11:16.745Z,59.47
2022-09-12T10:13:57.253Z,59.37
2022-09-12T10:16:29.966Z,59.11
2022-09-12T10:18:58.751Z,59.26
2022-09-12T10:22:01.002Z,58.69
2022-09-12T10:24:35.075Z,58.45
2022-09-12T10:27:15.581Z,57.38
2022-09-12T10:29:45.802Z,57.00
2022-09-12T10:32:17.023Z,57.05
2022-09-12T10:34:45.544Z,56.31
2022-09-12T10:37:40.186Z,56.90
2022-09-12T10:40:21.007Z,56.76
2022-09-12T10:42:53.201Z,55.59
2022-09-12T10:45:26.669Z,55.29
2022-09-12T10:47:55.572Z,55.11
2022-09-12T10:50:31.058Z,55.34
2022-09-12T10:53:14.856Z,55.09
2022-09-12T10:55:51.081Z,54.15
2022-09-12T10:59:05.267Z,53.43
2022-09-12T11:02:00.580Z,53.91
2022-09-12T11:04:30.277Z,52.92
2022-09-12T11:07:14.959Z,52.34
2022-09-12T11:10:04.550Z,51.94
2022-09-12T11:12:58.486Z,50.68
2022-09-12T11:15:43.265Z,50.52
2022-09-12T11:18:33.245Z,50.45
2022-09-12T11:21:14.820Z,50.27
2022-09-12T11:24:12.521Z,50.39
2022-09-12T11:27:14.647Z,50.03
2022-09-12T11:29:49.888Z,49.70
2022-09-12T11:32:19.534Z,49.98
2022-09-12T11:35:17.160Z,49.23
2022-09-12T11:38:21.445Z,49.69
2022-09-12T11:40:55.878Z,47.82
2022-09-12T11:43:38.669Z,47.02
2022-09-12T11:46:21.311Z,47.30
2022-09-12T11:49:09.360Z,47.70
2022-09-12T11:51:57.801Z,47.86
2022-09-12T11:54:44.894Z,47.88
2022-09-12T11:57:21.702Z,48.07
2022-09-12T11:59:59.295Z,49.16
2022-09-12T12:02:31.118Z,47.59
2022-09-12T12:05:20.500Z,47.29
2022-09-12T12:07:56.103Z,46.91
2022-09-12T12:10:51.568Z,48.05
2022-09-12T12:13:21.420Z,46.39
2022-09-12T12:15:55.149Z,47.92
2022-09-12T12:18:27.948Z,46.69
2022-09-12T12:20:56.709Z,45.96
2022-09-12T12:23:32.215Z,45.41
2022-09-12T12:26:04.617Z,46.14
2022-09-12T12:28:43.167Z,45.93
2022-09-12T12:31:10.756Z,46.39
2022-09-12T12:33:37.425Z,45.64
2022-09-12T12:36:28.441Z,46.29
2022-09-12T12:38:55.162Z,46.06
2022-09-12T12:41:21.691Z,46.14
2022-09-12T12:43:53.453Z,45.76
2022-09-12T12:46:26.692Z,45.61
2022-09-12T12:49:23.050Z,44.93
2022-09-12T12:52:01.565Z,44.88
2022-09-12T12:54:48.241Z,44.97
2022-09-12T12:57:25.134Z,46.41
2022-09-12T12:59:56.730Z,45.52
2022-09-12T13:02:31.808Z,45.41
2022-09-12T13:05:02.131Z,45.21
2022-09-12T13:07:31.239Z,44.04
2022-09-12T13:09:59.463Z,42.13
2022-09-12T13:12:34.117Z,43.52
2022-09-12T13:15:03.426Z,42.86
2022-09-12T13:17:32.613Z,43.87
2022-09-12T13:20:28.298Z,44.77
2022-09-12T13:22:56.005Z,42.75
2022-09-12T13:25:27.987Z,43.15
2022-09-12T13:28:01.345Z,43.35
2022-09-12T13:30:31.591Z,43.97
2022-09-12T13:32:58.775Z,42.94
2022-09-12T13:35:35.830Z,43.62
2022-09-12T13:38:16.692Z,42.96
2022-09-12T13:41:07.709Z,42.83
2022-09-12T13:43:41.518Z,43.23
2022-09-12T13:46:10.969Z,43.11
2022-09-12T13:48:39.733Z,42.15
2022-09-12T13:51:06.969Z,43.33
2022-09-12T13:53:44.623Z,42.69
2022-09-12T13:56:19.286Z,40.61
2022-09-12T13:59:13.390Z,41.88
2022-09-12T14:01:44.292Z,41.06
2022-09-12T14:04:37.956Z,41.88
2022-09-12T14:07:23.534Z,41.60
2022-09-12T14:09:58.822Z,41.74
2022-09-12T14:12:30.238Z,39.86
2022-09-12T14:14:57.352Z,39.12
2022-09-12T14:17:30.027Z,39.24
2022-09-12T14:20:04.536Z,39.66
2022-09-12T14:22:32.379Z,40.33
2022-09-12T14:24:59.565Z,40.74
2022-09-12T14:27:29.101Z,40.57
2022-09-12T14:30:23.872Z,42.12
2022-09-12T14:33:12.104Z,40.02
2022-09-12T14:35:43.662Z,40.12
2022-09-12T14:38:16.001Z,39.30
2022-09-12T14:41:05.768Z,39.39
2022-09-12T14:43:34.853Z,38.96
2022-09-12T14:46:04.013Z,39.62
2022-09-12T14:48:33.112Z,40.27
2022-09-12T14:50:59.919Z,40.08
2022-09-12T14:53:32.576Z,40.31
2022-09-12T14:56:13.289Z,40.90
2022-09-12T14:58:40.938Z,40.53
2022-09-12T15:01:07.829Z,41.40
2022-09-12T15:03:49.333Z,41.05
2022-09-12T15:06:38.072Z,40.97
2022-09-12T15:09:08.755Z,41.25
2022-09-12T15:11:35.474Z,41.59
2022-09-12T15:14:15.191Z,40.50
2022-09-12T15:16:42.592Z,40.83
2022-09-12T15:19:09.687Z,41.81
2022-09-12T15:21:36.236Z,40.64
2022-09-12T15:24:02.926Z,40.18
2022-09-12T15:26:31.585Z,39.38
2022-09-12T15:28:58.448Z,40.00
2022-09-12T15:31:32.186Z,40.77
2022-09-12T15:34:02.435Z,41.01
2022-09-12T15:36:29.605Z,41.35
2022-09-12T15:38:56.696Z,41.26
2022-09-12T15:41:30.111Z,41.19
2022-09-12T15:43:56.782Z,40.72
2022-09-12T15:46:23.693Z,39.66
2022-09-12T15:48:50.471Z,39.15
2022-09-12T15:51:21.731Z,38.09
2022-09-12T15:53:50.216Z,38.26
2022-09-12T15:56:18.764Z,37.41
2022-09-12T15:58:57.747Z,37.33
2022-09-12T16:01:25.920Z,36.47
2022-09-12T16:03:52.465Z,36.31
2022-09-12T16:06:18.894Z,37.31
2022-09-12T16:08:45.621Z,36.67
2022-09-12T16:11:18.766Z,36.71
2022-09-12T16:13:45.368Z,36.77
2022-09-12T16:16:11.997Z,37.73
2022-09-12T16:18:41.954Z,36.54
2022-09-12T16:21:14.071Z,36.89
2022-09-12T16:23:45.804Z,36.35
2022-09-12T16:26:12.345Z,38.80
2022-09-12T16:28:38.969Z,39.26
2022-09-12T16:31:08.037Z,38.92
2022-09-12T16:33:38.192Z,39.52
2022-09-12T16:36:10.750Z,38.53
2022-09-12T16:38:49.491Z,37.47
2022-09-12T16:41:17.901Z,37.19
2022-09-12T16:43:45.498Z,38.03
2022-09-12T16:46:24.356Z,38.56
2022-09-12T16:48:53.931Z,40.02
2022-09-12T16:51:26.282Z,40.04
2022-09-12T16:53:56.050Z,41.86
2022-09-12T16:56:23.425Z,41.63
2022-09-12T16:58:50.765Z,43.89
2022-09-12T17:01:23.362Z,43.97
2022-09-12T17:04:01.604Z,44.55
2022-09-12T17:06:28.581Z,44.56
2022-09-12T17:08:58.362Z,44.64
2022-09-12T17:11:29.823Z,44.28
2022-09-12T17:14:04.958Z,44.50
2022-09-12T17:16:35.477Z,45.41
2022-09-12T17:19:02.392Z,47.11
2022-09-12T17:21:29.087Z,47.37
2022-09-12T17:23:55.926Z,46.09
2022-09-12T17:26:22.916Z,46.09
2022-09-12T17:28:49.832Z,46.58
2022-09-12T17:31:17.457Z,46.92
2022-09-12T17:33:44.409Z,46.83
2022-09-12T17:36:15.205Z,46.91
2022-09-12T17:38:43.702Z,48.04
2022-09-12T17:41:18.085Z,48.28
2022-09-12T17:43:47.507Z,48.52
2022-09-12T17:46:14.294Z,48.90
2022-09-12T17:48:45.086Z,49.36
2022-09-12T17:51:14.044Z,49.76
2022-09-12T17:53:41.564Z,50.45
2022-09-12T17:56:09.105Z,50.29
2022-09-12T17:58:36.476Z,50.78
2022-09-12T18:01:32.561Z,50.33
2022-09-12T18:04:00.801Z,51.92
2022-09-12T18:06:32.314Z,51.86
2022-09-12T18:09:08.152Z,52.13
2022-09-12T18:11:35.552Z,52.91
2022-09-12T18:14:02.657Z,52.81
2022-09-12T18:16:31.472Z,52.01
2022-09-12T18:19:04.441Z,52.74
2022-09-12T18:21:31.029Z,53.40
2022-09-12T18:24:01.749Z,53.67
2022-09-12T18:26:29.385Z,53.93
2022-09-12T18:28:56.866Z,54.82
2022-09-12T18:31:26.260Z,54.66
2022-09-12T18:33:53.028Z,55.22
2022-09-12T18:36:20.225Z,55.58
2022-09-12T18:38:48.128Z,55.44
2022-09-12T18:41:22.826Z,55.85
2022-09-12T18:43:57.665Z,55.92
2022-09-12T18:46:28.426Z,56.69
2022-09-12T18:48:57.933Z,57.40
2022-09-12T18:51:33.992Z,57.14
2022-09-12T18:54:03.389Z,57.32
2022-09-12T18:56:34.838Z,57.59
2022-09-12T18:59:02.702Z,57.67
2022-09-12T19:01:32.059Z,58.32
2022-09-12T19:04:00.892Z,58.35
2022-09-12T19:06:30.167Z,58.75
2022-09-12T19:08:57.707Z,59.55
2022-09-12T19:11:31.960Z,59.69
2022-09-12T19:13:59.186Z,59.83
2022-09-12T19:16:30.885Z,60.23
2022-09-12T19:18:58.540Z,60.59
2022-09-12T19:21:28.818Z,60.71
2022-09-12T19:24:05.729Z,61.08
2022-09-12T19:26:33.546Z,61.35
2022-09-12T19:29:02.798Z,61.72
2022-09-12T19:31:30.685Z,62.02
2022-09-12T19:34:04.687Z,62.00
2022-09-12T19:36:47.771Z,61.82
2022-09-12T19:39:19.517Z,61.74
2022-09-12T19:41:46.451Z,61.75
2022-09-12T19:44:13.353Z,61.81
2022-09-12T19:46:40.385Z,62.26
2022-09-12T19:49:07.061Z,62.45
2022-09-12T19:51:33.581Z,62.68
2022-09-12T19:54:00.154Z,62.39
2022-09-12T19:56:26.966Z,61.98
2022-09-12T19:58:56.724Z,61.74
2022-09-12T20:01:29.600Z,61.67
2022-09-12T20:03:57.767Z,61.53
2022-09-12T20:06:24.898Z,61.90
2022-09-12T20:08:51.588Z,61.93
2022-09-12T20:11:20.010Z,61.73
2022-09-12T20:13:46.819Z,62.12
2022-09-12T20:16:21.072Z,62.75
2022-09-12T20:18:49.487Z,62.81
2022-09-12T20:21:20.150Z,61.98
2022-09-12T20:23:47.126Z,61.78
2022-09-12T20:26:14.001Z,62.56
2022-09-12T20:28:41.661Z,62.57
2022-09-12T20:31:13.878Z,63.34
2022-09-12T20:33:41.440Z,64.02
2022-09-12T20:36:10.788Z,64.39
2022-09-12T20:38:38.007Z,64.76
2022-09-12T20:41:06.618Z,64.67
2022-09-12T20:43:33.456Z,64.71
2022-09-12T20:45:59.941Z,64.41
2022-09-12T20:48:26.576Z,64.83
2022-09-12T20:50:53.060Z,64.96
2022-09-12T20:53:19.829Z,65.31
2022-09-12T20:55:51.526Z,65.17
2022-09-12T20:58:19.318Z,64.98
2022-09-12T21:00:46.564Z,65.32
2022-09-12T21:03:14.229Z,65.22
2022-09-12T21:05:42.749Z,65.12
2022-09-12T21:08:16.047Z,65.32
2022-09-12T21:10:44.172Z,64.94
2022-09-12T21:13:11.249Z,64.87
2022-09-12T21:15:38.864Z,65.55
2022-09-12T21:18:05.765Z,65.67
2022-09-12T21:20:32.926Z,66.10
2022-09-12T21:22:59.734Z,66.13
2022-09-12T21:25:26.490Z,66.43
2022-09-12T21:27:53.003Z,66.27
2022-09-12T21:30:19.749Z,66.19
2022-09-12T21:32:46.538Z,65.71
2022-09-12T21:35:13.665Z,65.45
2022-09-12T21:37:40.265Z,66.83
2022-09-12T21:40:07.801Z,66.81
2022-09-12T21:42:34.301Z,66.77
2022-09-12T21:45:00.829Z,67.11
2022-09-12T21:47:27.529Z,67.50
2022-09-12T21:49:55.447Z,67.82
2022-09-12T21:52:23.575Z,67.75
2022-09-12T21:54:50.177Z,67.48
2022-09-12T21:57:16.786Z,67.58
2022-09-12T21:59:43.392Z,67.21
2022-09-12T22:02:10.316Z,66.99
2022-09-12T22:04:36.842Z,66.76
2022-09-12T22:07:03.369Z,66.46
2022-09-12T22:09:30.358Z,66.11
2022-09-12T22:11:56.798Z,66.30
2022-09-12T22:14:23.635Z,66.27
2022-09-12T22:16:50.294Z,67.37
2022-09-12T22:19:16.824Z,67.53
2022-09-12T22:22:03.462Z,67.38
2022-09-12T22:24:30.289Z,67.26
2022-09-12T22:26:59.128Z,67.33
2022-09-12T22:29:26.998Z,67.49
2022-09-12T22:31:53.779Z,68.05
2022-09-12T22:34:20.318Z,67.24
2022-09-12T22:36:48.518Z,67.57
2022-09-12T22:39:15.055Z,66.89
2022-09-12T22:41:41.515Z,66.49
2022-09-12T22:44:08.942Z,66.27
2022-09-12T22:46:35.538Z,66.65
2022-09-12T22:49:02.011Z,66.02
2022-09-12T22:51:28.628Z,66.87
2022-09-12T22:53:56.497Z,66.78
2022-09-12T22:56:23.298Z,66.66
2022-09-12T22:58:50.091Z,67.28
2022-09-12T23:01:16.826Z,67.47
2022-09-12T23:03:43.720Z,67.40
2022-09-12T23:06:11.423Z,67.52
2022-09-12T23:08:39.573Z,67.71
2022-09-12T23:11:12.929Z,68.15
2022-09-12T23:13:42.400Z,67.76
2022-09-12T23:16:14.831Z,68.21
2022-09-12T23:18:41.302Z,67.65
2022-09-12T23:21:10.294Z,67.81
2022-09-12T23:23:37.309Z,67.87
2022-09-12T23:26:12.578Z,67.98
2022-09-12T23:28:41.148Z,68.36
2022-09-12T23:31:09.797Z,68.29
2022-09-12T23:33:36.419Z,68.35
2022-09-12T23:36:06.824Z,69.57
2022-09-12T23:38:34.114Z,69.49
2022-09-12T23:41:01.603Z,70.21
2022-09-12T23:43:29.930Z,69.79
2022-09-12T23:45:57.055Z,70.53
2022-09-12T23:48:23.852Z,71.52
2022-09-12T23:50:50.459Z,70.84
2022-09-12T23:53:17.701Z,71.52
2022-09-12T23:55:45.056Z,71.27
2022-09-12T23:58:11.782Z,73.12
